Time;durP1;ratioP1;P1;durP2;ratioP2;P2;SDS_P1;SDS_P2;PMS_P1;PMS_P2;Temp;Humidity;BMP_temperature;BMP_pressure;BME280_temperature;BME280_humidity;BME280_pressure;Samples;Min_cycle;Max_cycle;Signal;HPM_P1;HPM_P2
2022/01/16 00:00:08;;;;;;;45.53;14.23;;;3.30;74.30;;;;;;5054178;28;20059;-75
2022/01/16 00:05:18;;;;;;;22.58;9.40;;;3.30;74.20;;;;;;5054933;28;20393;-75
2022/01/16 00:07:43;;;;;;;37.33;13.07;;;3.30;74.30;;;;;;5054960;28;20428;-75
2022/01/16 00:10:10;;;;;;;55.28;14.00;;;3.40;74.30;;;;;;5055470;28;20393;-76
2022/01/16 00:12:36;;;;;;;33.15;13.85;;;3.30;74.30;;;;;;5054098;28;20029;-75
2022/01/16 00:15:03;;;;;;;53.53;13.40;;;3.50;74.40;;;;;;5059507;28;20077;-76
2022/01/16 00:17:34;;;;;;;41.03;12.90;;;3.30;74.30;;;;;;5067277;28;20033;-76
2022/01/16 00:19:59;;;;;;;42.83;14.18;;;3.20;73.90;;;;;;5053409;28;20039;-75
2022/01/16 00:22:29;;;;;;;36.03;12.30;;;3.20;73.70;;;;;;5055358;28;20025;-75
2022/01/16 00:24:54;;;;;;;33.47;13.40;;;3.20;73.60;;;;;;5054636;28;20116;-76
2022/01/16 00:27:20;;;;;;;28.83;11.98;;;3.10;73.70;;;;;;5054801;28;20104;-75
2022/01/16 00:29:46;;;;;;;30.30;12.80;;;3.10;73.70;;;;;;5059131;28;20508;-75
2022/01/16 00:32:11;;;;;;;41.90;13.27;;;3.00;73.70;;;;;;5073845;28;20024;-76
2022/01/16 00:34:37;;;;;;;38.85;13.00;;;3.00;73.70;;;;;;5054217;28;20449;-76
2022/01/16 00:37:03;;;;;;;32.15;13.48;;;3.00;73.50;;;;;;5054005;28;20033;-76
2022/01/16 00:39:29;;;;;;;39.50;15.10;;;2.90;73.60;;;;;;5054446;28;20029;-76
2022/01/16 00:41:55;;;;;;;30.55;13.38;;;2.90;74.00;;;;;;5053383;28;20032;-75
2022/01/16 00:44:21;;;;;;;30.02;13.30;;;2.90;74.30;;;;;;5051833;28;20021;-76
2022/01/16 00:46:47;;;;;;;32.17;12.60;;;2.80;74.30;;;;;;5054374;28;20037;-76
2022/01/16 00:49:12;;;;;;;29.52;13.30;;;3.00;74.50;;;;;;5052950;28;20025;-75
2022/01/16 00:51:38;;;;;;;30.80;13.07;;;2.80;74.60;;;;;;5054502;28;20024;-75
2022/01/16 00:54:05;;;;;;;31.77;13.25;;;2.80;74.70;;;;;;5054532;28;20047;-76
2022/01/16 00:56:31;;;;;;;30.92;12.77;;;2.80;74.60;;;;;;5053920;28;20048;-75
2022/01/16 00:58:56;;;;;;;31.40;13.25;;;2.80;74.60;;;;;;5054382;28;20444;-76
2022/01/16 01:01:22;;;;;;;31.40;14.02;;;2.80;74.70;;;;;;5052378;28;20124;-76
2022/01/16 01:03:48;;;;;;;32.03;14.15;;;2.90;74.80;;;;;;5053699;28;20025;-76
2022/01/16 01:06:14;;;;;;;35.42;13.95;;;2.90;74.80;;;;;;5054982;28;20444;-76
2022/01/16 01:08:40;;;;;;;26.70;12.23;;;2.90;74.70;;;;;;5065522;28;20036;-76
2022/01/16 01:11:11;;;;;;;41.25;12.02;;;2.90;74.40;;;;;;5071284;28;20024;-75
2022/01/16 01:14:41;;;;;;;28.65;12.38;;;2.80;74.10;;;;;;5052413;28;20028;-76
2022/01/16 01:16:50;;;;;;;31.77;12.52;;;2.80;74.20;;;;;;5047059;28;20140;-75
2022/01/16 01:19:18;;;;;;;21.98;8.77;;;2.80;74.40;;;;;;5046014;28;20104;-76
2022/01/16 01:21:44;;;;;;;31.17;13.65;;;2.80;74.40;;;;;;5048057;28;20037;-76
2022/01/16 01:24:09;;;;;;;37.38;14.15;;;2.80;74.50;;;;;;5065418;28;20086;-76
2022/01/16 01:26:43;;;;;;;34.95;14.00;;;2.80;74.50;;;;;;5052561;28;20029;-76
2022/01/16 01:29:09;;;;;;;32.60;12.60;;;2.80;74.70;;;;;;5053693;28;20114;-75
2022/01/16 01:31:34;;;;;;;32.22;12.80;;;2.80;74.60;;;;;;5052651;28;20465;-75
2022/01/16 01:34:00;;;;;;;37.78;13.27;;;2.80;74.40;;;;;;5051901;28;20067;-76
2022/01/16 01:36:25;;;;;;;34.72;13.05;;;2.80;74.50;;;;;;5053674;28;20033;-76
2022/01/16 01:38:51;;;;;;;34.90;13.25;;;2.80;74.50;;;;;;5052322;28;20485;-75
2022/01/16 01:41:19;;;;;;;38.45;14.68;;;3.00;74.70;;;;;;5052398;28;20029;-75
2022/01/16 01:51:44;;;;;;;40.00;14.50;;;3.00;74.70;;;;;;5056408;28;20063;-75
2022/01/16 01:54:11;;;;;;;36.90;13.80;;;2.80;74.30;;;;;;5053520;28;20540;-75
2022/01/16 01:56:38;;;;;;;36.63;14.77;;;2.90;74.40;;;;;;5052512;28;20068;-75
2022/01/16 01:59:04;;;;;;;37.65;15.25;;;2.80;75.00;;;;;;5043502;28;20024;-76
2022/01/16 02:01:31;;;;;;;37.25;14.38;;;2.80;74.60;;;;;;5054630;28;20025;-75
2022/01/16 02:03:57;;;;;;;43.03;15.68;;;2.80;74.90;;;;;;5049014;28;20021;-76
2022/01/16 02:06:26;;;;;;;31.83;13.93;;;2.80;74.90;;;;;;5051427;28;20029;-75
2022/01/16 02:08:54;;;;;;;45.50;15.90;;;2.80;74.90;;;;;;5053380;28;20079;-75
2022/01/16 02:11:26;;;;;;;40.33;15.65;;;2.80;75.10;;;;;;5052309;28;20496;-75
2022/01/16 02:35:09;;;;;;;43.67;18.23;;;2.80;74.60;;;;;;5052067;28;20017;-75
2022/01/16 02:37:35;;;;;;;41.33;16.80;;;2.80;74.50;;;;;;5054591;28;20033;-76
2022/01/16 02:40:09;;;;;;;38.97;16.50;;;2.80;74.60;;;;;;5052592;28;20029;-75
2022/01/16 02:42:39;;;;;;;27.73;11.65;;;2.80;74.70;;;;;;5057008;28;20534;-75
2022/01/16 02:45:06;;;;;;;36.90;16.40;;;2.80;74.50;;;;;;5054639;28;20049;-76
2022/01/16 02:47:32;;;;;;;37.13;15.13;;;2.70;74.40;;;;;;5052329;28;20550;-76
2022/01/16 02:50:00;;;;;;;37.42;15.73;;;2.70;74.50;;;;;;5050534;28;20057;-76
2022/01/16 02:52:26;;;;;;;37.55;15.68;;;2.70;74.80;;;;;;5071731;28;20036;-75
2022/01/16 02:54:55;;;;;;;36.05;15.73;;;2.70;74.80;;;;;;5056610;28;20029;-76
2022/01/16 02:57:21;;;;;;;39.42;17.15;;;2.70;74.80;;;;;;5056831;28;20039;-75
2022/01/16 02:59:55;;;;;;;35.78;15.70;;;2.70;74.80;;;;;;5058344;28;20025;-75
2022/01/16 03:02:24;;;;;;;36.78;16.38;;;2.80;74.80;;;;;;5050138;28;20029;-75
2022/01/16 03:04:50;;;;;;;40.80;16.80;;;2.80;74.50;;;;;;5050687;28;20035;-75
2022/01/16 03:07:16;;;;;;;41.15;16.60;;;2.70;74.40;;;;;;5056377;28;20063;-76
2022/01/16 03:12:09;;;;;;;36.67;16.48;;;2.70;74.00;;;;;;5060147;28;20099;-76
2022/01/16 03:14:35;;;;;;;41.95;17.92;;;2.70;74.20;;;;;;5071527;28;20466;-76
2022/01/16 03:17:01;;;;;;;44.88;16.83;;;2.60;74.50;;;;;;5055536;28;20028;-76
2022/01/16 03:22:11;;;;;;;42.67;16.90;;;2.60;74.50;;;;;;5050404;28;20032;-75
2022/01/16 03:24:40;;;;;;;43.78;17.23;;;2.60;74.60;;;;;;5056303;28;20596;-76
2022/01/16 03:27:16;;;;;;;37.67;16.25;;;2.60;74.90;;;;;;5054575;28;20060;-75
2022/01/16 03:29:44;;;;;;;45.92;18.73;;;2.70;75.10;;;;;;5054827;28;20049;-75
2022/01/16 03:32:15;;;;;;;46.00;18.33;;;2.70;75.00;;;;;;5061394;28;20097;-76
2022/01/16 03:34:41;;;;;;;43.78;18.05;;;2.70;74.80;;;;;;5075905;28;20142;-75
2022/01/16 03:37:07;;;;;;;43.33;18.55;;;2.70;74.50;;;;;;5055728;28;20496;-76
2022/01/16 03:39:34;;;;;;;47.47;18.50;;;2.70;74.50;;;;;;5055230;28;20417;-76
2022/01/16 03:42:01;;;;;;;42.92;18.23;;;2.70;74.60;;;;;;5055642;28;20071;-76
2022/01/16 03:44:27;;;;;;;46.35;18.85;;;2.80;74.50;;;;;;5055990;28;20052;-75
2022/01/16 03:46:53;;;;;;;46.85;19.33;;;2.70;74.40;;;;;;5055079;28;20112;-75
2022/01/16 03:49:26;;;;;;;52.85;19.95;;;2.70;74.40;;;;;;5054192;28;20064;-75
2022/01/16 03:51:53;;;;;;;46.92;19.42;;;2.70;74.60;;;;;;5054328;28;20111;-75
2022/01/16 03:54:22;;;;;;;47.13;18.85;;;2.70;74.60;;;;;;5055794;28;20024;-75
2022/01/16 03:56:49;;;;;;;53.75;18.83;;;2.80;74.60;;;;;;5054610;28;21162;-75
2022/01/16 03:59:15;;;;;;;50.50;19.35;;;2.70;74.40;;;;;;5055532;28;20054;-75
2022/01/16 04:01:41;;;;;;;49.10;20.38;;;2.70;74.30;;;;;;5053546;28;20049;-75
2022/01/16 04:04:07;;;;;;;47.05;19.70;;;2.80;74.30;;;;;;5057680;28;20036;-75
2022/01/16 04:06:33;;;;;;;56.80;21.15;;;2.70;74.30;;;;;;5057059;28;20021;-76
2022/01/16 04:08:59;;;;;;;43.10;18.10;;;2.70;74.40;;;;;;5055158;28;20028;-76
2022/01/16 04:11:27;;;;;;;51.13;20.15;;;2.70;74.40;;;;;;5054173;28;20115;-75
2022/01/16 04:14:03;;;;;;;45.88;19.23;;;2.70;74.50;;;;;;5054959;28;20428;-75
2022/01/16 04:16:28;;;;;;;53.17;19.70;;;2.70;74.50;;;;;;5054005;28;20036;-76
2022/01/16 04:18:54;;;;;;;45.45;19.17;;;2.70;74.40;;;;;;5055623;28;20485;-75
2022/01/16 04:21:22;;;;;;;41.65;18.17;;;2.70;74.40;;;;;;5069514;28;20040;-75
2022/01/16 04:23:49;;;;;;;48.30;19.50;;;2.80;74.50;;;;;;5053774;28;20445;-75
2022/01/16 04:26:16;;;;;;;42.95;19.23;;;2.70;74.30;;;;;;5055050;28;20056;-75
2022/01/16 04:28:42;;;;;;;44.97;18.27;;;2.70;74.40;;;;;;5058017;28;20132;-76
2022/01/16 04:31:09;;;;;;;46.00;20.92;;;2.70;74.40;;;;;;5053607;28;20561;-75
2022/01/16 04:33:35;;;;;;;47.55;20.17;;;2.70;74.60;;;;;;5055452;28;20112;-75
2022/01/16 04:36:01;;;;;;;49.60;20.77;;;2.70;74.60;;;;;;5053367;28;20431;-75
2022/01/16 04:38:27;;;;;;;45.78;19.60;;;2.70;74.60;;;;;;5053222;28;20025;-75
2022/01/16 04:43:53;;;;;;;;;;;2.80;74.50;;;;;;5055680;28;20128;-75
2022/01/16 04:46:21;;;;;;;49.10;17.88;;;2.80;74.60;;;;;;5054659;28;20376;-75
2022/01/16 04:48:47;;;;;;;47.22;20.08;;;2.80;73.80;;;;;;5054481;28;20040;-76
2022/01/16 04:51:15;;;;;;;44.55;18.17;;;2.80;73.90;;;;;;5052780;28;20036;-75
2022/01/16 04:53:41;;;;;;;42.65;18.70;;;2.80;74.00;;;;;;5054554;28;20017;-75
2022/01/16 04:56:07;;;;;;;45.47;19.58;;;2.80;74.10;;;;;;5054532;28;20036;-75
2022/01/16 04:58:34;;;;;;;39.08;18.25;;;2.80;74.30;;;;;;5054626;28;20473;-76
2022/01/16 05:01:01;;;;;;;40.38;19.48;;;2.90;74.20;;;;;;5053581;28;20489;-75
2022/01/16 05:03:28;;;;;;;38.63;19.52;;;2.70;74.00;;;;;;5054153;28;20035;-75
2022/01/16 05:05:54;;;;;;;37.15;18.48;;;2.80;74.00;;;;;;5034728;28;20497;-76
2022/01/16 05:08:21;;;;;;;40.90;19.35;;;2.80;73.90;;;;;;5051067;28;20481;-76
2022/01/16 05:10:47;;;;;;;37.78;18.17;;;2.70;73.80;;;;;;5053983;28;20021;-75
2022/01/16 05:13:29;;;;;;;35.75;16.63;;;2.70;73.80;;;;;;5061230;28;20047;-75
2022/01/16 05:18:42;;;;;;;39.65;18.15;;;2.70;73.80;;;;;;5067649;28;20443;-75
2022/01/16 05:21:07;;;;;;;33.53;16.48;;;2.70;73.70;;;;;;5052874;28;20025;-75
2022/01/16 05:23:34;;;;;;;38.65;17.58;;;2.60;73.40;;;;;;5050460;28;20496;-76
2022/01/16 05:26:00;;;;;;;33.25;15.43;;;2.60;73.50;;;;;;5043147;28;20033;-76
2022/01/16 05:28:27;;;;;;;32.78;17.05;;;2.70;73.60;;;;;;5051556;28;20061;-76
2022/01/16 05:30:53;;;;;;;36.40;17.90;;;2.50;73.40;;;;;;5059310;28;20027;-75
2022/01/16 05:33:18;;;;;;;33.45;16.55;;;2.50;73.40;;;;;;5053680;28;20037;-76
2022/01/16 05:35:44;;;;;;;37.33;17.08;;;2.40;73.20;;;;;;5069361;28;20044;-75
2022/01/16 05:38:10;;;;;;;35.40;16.40;;;2.40;73.20;;;;;;5066610;28;20033;-76
2022/01/16 05:40:37;;;;;;;34.63;16.63;;;2.40;73.20;;;;;;5052910;28;20479;-75
2022/01/16 05:43:03;;;;;;;36.75;17.17;;;2.30;73.40;;;;;;5053199;28;20036;-76
2022/01/16 05:45:29;;;;;;;38.38;16.10;;;2.20;73.60;;;;;;5052186;28;20243;-75
2022/01/16 05:47:55;;;;;;;33.00;16.48;;;2.40;73.80;;;;;;5052056;28;20079;-75
2022/01/16 05:50:22;;;;;;;37.17;18.27;;;2.20;73.70;;;;;;5053636;28;20113;-76
2022/01/16 05:52:48;;;;;;;39.58;18.25;;;2.10;73.70;;;;;;5066757;28;20032;-75
2022/01/16 05:55:15;;;;;;;38.22;18.50;;;2.20;74.00;;;;;;5053118;28;20078;-75
2022/01/16 05:57:41;;;;;;;33.88;16.88;;;2.10;74.10;;;;;;5052411;28;20166;-75
2022/01/16 06:00:08;;;;;;;40.42;18.65;;;2.40;74.30;;;;;;5052622;28;20032;-76
2022/01/16 06:02:35;;;;;;;37.45;17.83;;;2.10;74.00;;;;;;5051752;28;20032;-76
2022/01/16 06:05:01;;;;;;;35.33;17.40;;;2.10;74.10;;;;;;5044814;28;20029;-75
2022/01/16 06:07:26;;;;;;;38.30;18.23;;;2.10;74.00;;;;;;5051764;28;20099;-75
2022/01/16 06:09:52;;;;;;;41.88;19.80;;;2.10;74.10;;;;;;5051394;28;20029;-75
2022/01/16 06:12:19;;;;;;;40.88;18.90;;;2.10;73.90;;;;;;5052008;28;20028;-76
2022/01/16 06:14:44;;;;;;;38.25;18.55;;;2.10;73.80;;;;;;5057799;28;20028;-75
2022/01/16 06:17:10;;;;;;;39.72;18.52;;;2.10;73.80;;;;;;5054707;28;20528;-76
2022/01/16 06:19:36;;;;;;;44.13;19.50;;;2.10;74.00;;;;;;5052383;28;20022;-76
2022/01/16 06:22:02;;;;;;;44.53;19.63;;;2.10;74.20;;;;;;5051603;28;20029;-75
2022/01/16 06:24:28;;;;;;;42.60;18.55;;;2.00;74.10;;;;;;5051066;28;20046;-75
2022/01/16 06:26:54;;;;;;;39.47;18.90;;;2.20;74.40;;;;;;5052578;28;20033;-75
2022/01/16 06:29:19;;;;;;;43.35;20.00;;;2.10;74.60;;;;;;5051327;28;20045;-75
2022/01/16 06:31:45;;;;;;;43.67;19.88;;;2.00;74.40;;;;;;5065550;28;20032;-76
2022/01/16 06:34:11;;;;;;;49.72;20.15;;;2.10;74.60;;;;;;5071602;28;20028;-75
2022/01/16 06:36:37;;;;;;;44.90;20.25;;;2.10;74.50;;;;;;5050592;28;20116;-76
2022/01/16 06:39:05;;;;;;;43.47;17.85;;;2.10;74.40;;;;;;5052387;28;20029;-75
2022/01/16 06:41:31;;;;;;;45.60;19.65;;;2.10;74.50;;;;;;5051260;28;20050;-75
2022/01/16 06:43:57;;;;;;;49.08;21.08;;;2.10;74.50;;;;;;5052613;28;20028;-75
2022/01/16 06:46:23;;;;;;;46.90;21.40;;;2.10;74.40;;;;;;5052277;28;20409;-75
2022/01/16 06:48:49;;;;;;;44.83;20.17;;;2.30;74.40;;;;;;5052296;28;20029;-76
2022/01/16 06:51:18;;;;;;;50.63;22.20;;;2.10;74.20;;;;;;5052397;28;20029;-76
2022/01/16 06:53:47;;;;;;;48.22;22.25;;;2.10;74.20;;;;;;5052363;28;20040;-75
2022/01/16 06:56:17;;;;;;;54.00;22.27;;;2.30;74.20;;;;;;5052248;28;20068;-76
2022/01/16 06:58:43;;;;;;;50.92;22.70;;;2.20;74.30;;;;;;5052229;28;20052;-75
2022/01/16 07:01:10;;;;;;;49.00;22.65;;;2.10;74.40;;;;;;5066048;28;20366;-75
2022/01/16 07:03:36;;;;;;;51.88;23.83;;;2.20;74.60;;;;;;5050117;28;20468;-75
2022/01/16 07:06:03;;;;;;;51.58;24.00;;;2.30;74.70;;;;;;5032443;28;20386;-76
2022/01/16 07:08:29;;;;;;;45.42;22.88;;;2.20;74.10;;;;;;5050982;28;20481;-76
2022/01/16 07:10:56;;;;;;;54.03;25.08;;;2.10;73.90;;;;;;5052609;28;20048;-75
2022/01/16 07:13:22;;;;;;;48.67;21.95;;;2.20;74.10;;;;;;5051605;28;20025;-75
2022/01/16 07:15:49;;;;;;;48.65;22.88;;;2.10;74.40;;;;;;5056483;28;20025;-76
2022/01/16 07:18:15;;;;;;;54.05;25.55;;;2.10;74.60;;;;;;5054408;28;20505;-76
2022/01/16 07:20:43;;;;;;;51.35;23.67;;;2.10;74.40;;;;;;5052383;28;20063;-75
2022/01/16 07:23:09;;;;;;;50.92;22.60;;;2.10;74.40;;;;;;5051313;28;20028;-75
2022/01/16 07:25:35;;;;;;;54.08;24.42;;;2.30;74.40;;;;;;5047198;28;20033;-74
2022/01/16 07:28:01;;;;;;;58.20;27.15;;;2.30;74.30;;;;;;5038543;28;20461;-74
2022/01/16 07:30:27;;;;;;;56.05;23.85;;;2.10;74.20;;;;;;5040819;28;20120;-74
2022/01/16 07:32:53;;;;;;;49.63;22.75;;;2.10;74.40;;;;;;5046539;28;20099;-74
2022/01/16 07:35:18;;;;;;;53.92;23.58;;;2.20;74.50;;;;;;5051771;28;20424;-74
2022/01/16 07:37:44;;;;;;;49.35;22.17;;;2.20;74.60;;;;;;5050867;28;20033;-74
2022/01/16 07:40:10;;;;;;;49.05;22.92;;;2.20;74.40;;;;;;5051573;28;20025;-74
2022/01/16 07:42:36;;;;;;;48.53;23.88;;;2.20;74.40;;;;;;5052077;28;20040;-74
2022/01/16 07:45:03;;;;;;;46.85;22.85;;;2.30;74.40;;;;;;5050781;28;20473;-74
2022/01/16 07:47:29;;;;;;;50.30;22.25;;;2.20;74.30;;;;;;5056042;28;20126;-74
2022/01/16 07:49:55;;;;;;;52.05;25.02;;;2.30;74.00;;;;;;5052238;28;20076;-74
2022/01/16 07:52:21;;;;;;;47.85;23.63;;;2.20;73.70;;;;;;5052942;28;20104;-73
2022/01/16 07:54:47;;;;;;;46.00;22.65;;;2.20;73.60;;;;;;5053857;28;20078;-74
2022/01/16 07:57:13;;;;;;;44.45;22.25;;;2.20;73.60;;;;;;5056005;28;20072;-74
2022/01/16 07:59:39;;;;;;;48.33;22.67;;;2.20;73.70;;;;;;5054135;28;20035;-74
2022/01/16 08:02:05;;;;;;;44.92;22.33;;;2.10;73.60;;;;;;5055224;28;20072;-74
2022/01/16 08:04:31;;;;;;;47.30;22.48;;;2.30;73.80;;;;;;5055543;28;20052;-74
2022/01/16 08:06:57;;;;;;;49.58;23.55;;;2.10;73.70;;;;;;5054989;28;20063;-74
2022/01/16 08:09:22;;;;;;;45.72;21.10;;;2.10;73.80;;;;;;5054277;28;20477;-74
2022/01/16 08:11:48;;;;;;;47.03;22.40;;;2.10;73.90;;;;;;5055333;28;20374;-74
2022/01/16 08:14:14;;;;;;;47.60;23.13;;;2.40;74.10;;;;;;5053978;28;20385;-74
2022/01/16 08:16:40;;;;;;;49.58;23.17;;;2.10;74.00;;;;;;5055014;28;20052;-74
2022/01/16 08:19:05;;;;;;;46.92;22.65;;;2.20;74.10;;;;;;5055018;28;20025;-74
2022/01/16 08:21:31;;;;;;;42.70;22.48;;;2.20;74.00;;;;;;5061599;28;20025;-74
2022/01/16 08:23:56;;;;;;;48.90;22.73;;;2.30;74.10;;;;;;5058706;28;20032;-74
2022/01/16 08:26:22;;;;;;;47.90;23.48;;;2.30;74.10;;;;;;5053747;28;20029;-74
2022/01/16 08:28:48;;;;;;;49.38;24.05;;;2.50;74.40;;;;;;5054831;28;20053;-73
2022/01/16 08:31:14;;;;;;;47.30;21.98;;;2.40;74.20;;;;;;5067019;28;20021;-74
2022/01/16 08:33:39;;;;;;;49.30;25.27;;;2.50;74.30;;;;;;5053697;28;20453;-74
2022/01/16 08:36:05;;;;;;;46.60;25.17;;;2.50;74.20;;;;;;5053419;28;20037;-74
2022/01/16 08:38:32;;;;;;;46.10;22.92;;;2.80;74.30;;;;;;5054702;28;20041;-74
2022/01/16 08:40:59;;;;;;;46.65;22.95;;;2.70;74.20;;;;;;5054547;28;20326;-74
2022/01/16 08:43:25;;;;;;;46.50;22.77;;;2.80;74.10;;;;;;5053805;28;20029;-74
2022/01/16 08:45:50;;;;;;;41.40;22.02;;;2.90;74.00;;;;;;5053400;28;20420;-74
2022/01/16 08:48:16;;;;;;;40.38;20.67;;;3.00;73.80;;;;;;5053845;28;20021;-73
2022/01/16 08:50:42;;;;;;;40.97;21.52;;;3.10;73.60;;;;;;5054555;28;20021;-73
2022/01/16 08:53:08;;;;;;;43.80;21.45;;;3.10;73.30;;;;;;5059766;28;20536;-73
2022/01/16 08:55:34;;;;;;;40.10;20.77;;;3.20;73.20;;;;;;5055462;28;20025;-73
2022/01/16 08:58:01;;;;;;;41.90;21.60;;;3.30;73.10;;;;;;5068713;28;20115;-73
2022/01/16 09:00:27;;;;;;;32.92;17.45;;;3.30;72.90;;;;;;5059562;28;20096;-73
2022/01/16 09:02:53;;;;;;;36.03;19.60;;;3.40;72.80;;;;;;5055418;28;20021;-73
2022/01/16 09:05:18;;;;;;;38.80;20.13;;;3.50;72.50;;;;;;5038010;28;20556;-74
2022/01/16 09:07:44;;;;;;;35.08;19.13;;;3.40;72.40;;;;;;5051672;28;20041;-74
2022/01/16 09:10:10;;;;;;;33.53;18.45;;;3.50;72.30;;;;;;5051932;28;20056;-74
2022/01/16 09:12:36;;;;;;;36.58;19.13;;;3.50;72.30;;;;;;5050101;28;20029;-74
2022/01/16 09:15:07;;;;;;;36.67;20.80;;;3.50;72.40;;;;;;5050588;28;20028;-73
2022/01/16 09:17:33;;;;;;;39.38;20.83;;;3.60;72.50;;;;;;5049665;28;20041;-73
2022/01/16 09:19:58;;;;;;;38.03;20.70;;;3.70;72.60;;;;;;5050761;28;20028;-74
2022/01/16 09:22:24;;;;;;;40.25;20.90;;;3.80;72.60;;;;;;5051177;28;20040;-74
2022/01/16 09:24:51;;;;;;;38.40;20.58;;;3.80;72.40;;;;;;5050899;28;20033;-73
2022/01/16 09:27:18;;;;;;;37.03;20.33;;;3.90;72.30;;;;;;5037138;28;20099;-73
2022/01/16 09:29:44;;;;;;;34.05;19.40;;;4.00;72.20;;;;;;5036564;28;20053;-73
2022/01/16 09:32:13;;;;;;;39.33;21.20;;;4.10;72.30;;;;;;5037029;28;20029;-74
2022/01/16 09:34:42;;;;;;;36.40;19.40;;;4.40;72.30;;;;;;5037435;28;20017;-73
2022/01/16 09:37:09;;;;;;;37.42;20.20;;;4.30;72.20;;;;;;5036235;28;20044;-73
2022/01/16 09:39:39;;;;;;;37.97;20.67;;;4.40;72.10;;;;;;5035872;28;20021;-73
2022/01/16 09:42:07;;;;;;;33.67;19.23;;;4.50;71.50;;;;;;5054711;28;20029;-74
2022/01/16 09:44:38;;;;;;;34.30;20.25;;;4.60;71.60;;;;;;5036014;28;20143;-73
2022/01/16 09:47:04;;;;;;;32.78;17.50;;;4.70;71.10;;;;;;5034824;28;20040;-73
2022/01/16 09:49:30;;;;;;;35.28;19.73;;;4.80;71.20;;;;;;5034724;28;20029;-73
2022/01/16 09:51:56;;;;;;;33.50;18.23;;;4.90;71.20;;;;;;5053615;28;20037;-73
2022/01/16 09:54:23;;;;;;;34.20;19.35;;;4.90;71.20;;;;;;5050931;28;20052;-73
2022/01/16 09:56:49;;;;;;;34.00;19.40;;;5.00;71.20;;;;;;5037156;28;20409;-73
2022/01/16 09:59:16;;;;;;;28.15;15.73;;;5.10;71.10;;;;;;5051697;28;20017;-74
2022/01/16 10:01:41;;;;;;;28.75;15.73;;;5.10;71.10;;;;;;5037065;28;20040;-73
2022/01/16 10:04:40;;;;;;;26.33;16.27;;;5.20;70.90;;;;;;5041466;28;20021;-73
2022/01/16 10:07:09;;;;;;;23.58;14.40;;;5.30;70.00;;;;;;5046106;28;20064;-72
2022/01/16 10:09:39;;;;;;;28.92;15.10;;;5.30;70.30;;;;;;5050277;28;20029;-72
2022/01/16 10:12:16;;;;;;;30.13;16.77;;;5.40;70.30;;;;;;5048657;28;20028;-72
2022/01/16 10:14:48;;;;;;;28.27;15.82;;;5.40;69.70;;;;;;5049125;28;20033;-71
2022/01/16 10:17:25;;;;;;;28.88;15.77;;;5.40;68.50;;;;;;5050595;28;20040;-72
2022/01/16 10:19:58;;;;;;;28.45;16.00;;;5.40;68.20;;;;;;5048566;28;20033;-72
2022/01/16 10:22:43;;;;;;;30.83;16.70;;;5.40;69.10;;;;;;5048744;28;20044;-71
2022/01/16 10:25:09;;;;;;;;;;;5.40;69.10;;;;;;5050293;28;20042;-71
2022/01/16 10:27:38;;;;;;;23.77;13.02;;;5.40;68.90;;;;;;5048706;28;20000;-72
2022/01/16 10:30:07;;;;;;;24.17;13.85;;;5.40;69.10;;;;;;5049475;28;20166;-71
2022/01/16 10:32:37;;;;;;;27.80;14.95;;;5.40;69.10;;;;;;5050226;28;20067;-71
2022/01/16 10:35:17;;;;;;;27.50;15.70;;;5.40;68.90;;;;;;5045955;28;20025;-71
2022/01/16 10:37:47;;;;;;;27.45;14.90;;;5.50;69.10;;;;;;5048811;28;20037;-71
2022/01/16 10:40:19;;;;;;;26.13;15.43;;;5.50;69.10;;;;;;5047616;28;20041;-72
2022/01/16 10:42:49;;;;;;;32.25;16.27;;;5.50;68.30;;;;;;5048401;28;20029;-71
2022/01/16 10:45:17;;;;;;;28.27;15.23;;;5.50;68.00;;;;;;5050489;28;20021;-72
2022/01/16 10:47:51;;;;;;;23.45;14.18;;;5.50;68.50;;;;;;5049407;28;20048;-72
2022/01/16 10:50:19;;;;;;;26.38;14.23;;;5.50;68.70;;;;;;5047360;28;20024;-72
2022/01/16 10:53:02;;;;;;;28.58;15.35;;;5.50;68.80;;;;;;5048786;28;20041;-71
2022/01/16 10:55:33;;;;;;;31.58;15.55;;;5.60;68.50;;;;;;5047431;28;20033;-71
2022/01/16 10:58:08;;;;;;;27.98;16.15;;;5.60;68.60;;;;;;5049717;28;20041;-71
2022/01/16 11:00:34;;;;;;;25.27;13.80;;;5.70;68.20;;;;;;5048094;28;20120;-72
2022/01/16 11:03:01;;;;;;;21.75;12.68;;;5.70;68.20;;;;;;5047967;28;20079;-71
2022/01/16 11:05:28;;;;;;;24.83;14.73;;;5.70;68.20;;;;;;5048325;28;20033;-72
2022/01/16 11:08:03;;;;;;;25.52;15.60;;;5.70;68.00;;;;;;5048080;28;20040;-71
2022/01/16 11:10:36;;;;;;;26.50;16.15;;;5.70;67.90;;;;;;5048282;28;20094;-71
2022/01/16 11:13:08;;;;;;;18.35;11.43;;;5.70;67.20;;;;;;5049243;28;20071;-71
2022/01/16 11:15:36;;;;;;;22.38;13.15;;;5.70;67.60;;;;;;5048678;28;20057;-71
2022/01/16 11:18:03;;;;;;;20.80;13.18;;;5.60;67.50;;;;;;5049245;28;20043;-72
2022/01/16 11:20:34;;;;;;;25.63;14.30;;;5.60;67.60;;;;;;5048049;28;20053;-71
2022/01/16 11:23:14;;;;;;;24.85;14.10;;;5.50;68.40;;;;;;5048013;28;20036;-71
2022/01/16 11:25:42;;;;;;;25.75;15.43;;;5.40;67.70;;;;;;5048090;28;20469;-72
2022/01/16 11:28:09;;;;;;;26.40;14.38;;;5.40;67.90;;;;;;5050702;28;20025;-71
2022/01/16 11:30:42;;;;;;;24.88;14.65;;;5.40;68.10;;;;;;5047416;28;20549;-71
2022/01/16 11:33:08;;;;;;;23.27;14.85;;;5.40;68.10;;;;;;5050753;28;20032;-71
2022/01/16 11:35:40;;;;;;;31.08;15.30;;;5.40;68.20;;;;;;5051482;28;20021;-71
2022/01/16 11:38:06;;;;;;;22.77;13.70;;;5.40;68.10;;;;;;5050340;28;20120;-71
2022/01/16 11:40:47;;;;;;;29.98;16.83;;;5.30;68.20;;;;;;5051374;28;20111;-71
2022/01/16 11:43:36;;;;;;;25.20;14.57;;;5.30;67.80;;;;;;5051437;28;20033;-71
2022/01/16 11:46:05;;;;;;;26.15;15.93;;;5.30;68.00;;;;;;5051155;28;20033;-72
2022/01/16 11:48:35;;;;;;;28.27;14.93;;;5.30;68.40;;;;;;5050876;28;20021;-72
2022/01/16 11:51:05;;;;;;;25.92;15.73;;;5.30;68.60;;;;;;5050727;28;20070;-72
2022/01/16 11:54:08;;;;;;;24.40;14.85;;;5.30;68.50;;;;;;5076537;28;20025;-71
2022/01/16 11:56:40;;;;;;;26.63;15.25;;;5.30;68.10;;;;;;5052121;28;20035;-72
2022/01/16 11:59:12;;;;;;;29.20;16.35;;;5.30;68.00;;;;;;5050935;28;20047;-72
2022/01/16 12:01:52;;;;;;;27.73;16.08;;;5.30;68.20;;;;;;5051846;28;20032;-72
2022/01/16 12:04:30;;;;;;;27.02;16.55;;;5.30;68.20;;;;;;5053613;28;20017;-72
2022/01/16 12:07:15;;;;;;;26.38;15.73;;;5.30;68.20;;;;;;5051565;28;20021;-72
2022/01/16 12:12:13;;;;;;;36.03;21.63;;;5.20;68.30;;;;;;5051673;28;20032;-71
2022/01/16 12:15:07;;;;;;;32.13;17.05;;;5.20;68.30;;;;;;5073594;28;20075;-72
2022/01/16 12:17:46;;;;;;;28.38;16.13;;;5.20;68.50;;;;;;5052641;28;20033;-72
2022/01/16 12:20:12;;;;;;;32.80;18.02;;;5.20;68.60;;;;;;5051445;28;20071;-73
2022/01/16 12:22:48;;;;;;;28.25;15.73;;;5.30;68.80;;;;;;5050993;28;20443;-72
2022/01/16 12:25:18;;;;;;;29.38;16.92;;;5.30;69.00;;;;;;5050283;28;20485;-74
2022/01/16 12:28:03;;;;;;;29.13;17.02;;;5.40;69.10;;;;;;5052004;28;20057;-73
2022/01/16 12:31:02;;;;;;;29.30;16.58;;;5.40;68.90;;;;;;5050825;28;20029;-73
2022/01/16 12:33:42;;;;;;;29.45;16.35;;;5.50;68.80;;;;;;5049862;28;20448;-73
2022/01/16 12:36:16;;;;;;;28.73;15.55;;;5.60;68.70;;;;;;5050764;28;20578;-73
2022/01/16 12:39:01;;;;;;;30.10;16.38;;;5.60;68.50;;;;;;5049293;28;20040;-74
2022/01/16 12:41:27;;;;;;;41.92;21.30;;;5.70;68.10;;;;;;5051832;28;20052;-73
2022/01/16 12:43:56;;;;;;;32.10;18.85;;;5.70;67.80;;;;;;5051953;28;20048;-72
2022/01/16 12:46:21;;;;;;;38.88;21.05;;;5.70;68.00;;;;;;5050764;28;20017;-72
2022/01/16 12:48:52;;;;;;;43.25;23.27;;;5.70;68.10;;;;;;5054086;28;20094;-73
2022/01/16 12:51:20;;;;;;;39.10;19.63;;;5.70;68.20;;;;;;5051587;28;20028;-72
2022/01/16 12:54:01;;;;;;;33.67;18.48;;;5.60;68.30;;;;;;5050186;28;20403;-73
2022/01/16 12:56:34;;;;;;;36.72;17.52;;;5.60;68.20;;;;;;5051519;28;20037;-73
2022/01/16 12:59:05;;;;;;;32.40;19.58;;;5.70;68.20;;;;;;5051767;28;20119;-72
2022/01/16 13:01:32;;;;;;;32.95;17.10;;;5.60;68.10;;;;;;5051251;28;20052;-73
2022/01/16 13:03:57;;;;;;;31.85;17.95;;;5.60;68.10;;;;;;5050894;28;20029;-72
2022/01/16 13:06:29;;;;;;;34.58;18.88;;;5.60;68.20;;;;;;5051384;28;20028;-72
2022/01/16 13:09:11;;;;;;;39.15;19.33;;;5.60;68.80;;;;;;5076065;28;21497;-72
2022/01/16 13:11:38;;;;;;;33.67;18.83;;;5.50;68.00;;;;;;5049689;28;20502;-72
2022/01/16 13:14:06;;;;;;;33.85;19.35;;;5.50;68.10;;;;;;5051494;28;20531;-73
2022/01/16 13:16:38;;;;;;;43.88;19.67;;;5.40;68.10;;;;;;5051349;28;20036;-72
2022/01/16 13:19:14;;;;;;;35.92;19.13;;;5.40;68.30;;;;;;5049279;28;20072;-73
2022/01/16 13:21:58;;;;;;;36.15;18.95;;;5.30;68.40;;;;;;5049955;28;20056;-73
2022/01/16 13:24:31;;;;;;;36.90;20.20;;;5.30;68.60;;;;;;5050284;28;20027;-72
2022/01/16 13:26:58;;;;;;;36.28;20.33;;;5.30;68.60;;;;;;5049247;28;20037;-73
2022/01/16 13:29:24;;;;;;;37.28;20.40;;;5.20;68.50;;;;;;5051327;28;20037;-71